Time;durP1;ratioP1;P1;durP2;ratioP2;P2;SDS_P1;SDS_P2;PMS_P1;PMS_P2;Temp;Humidity;BMP_temperature;BMP_pressure;BME280_temperature;BME280_humidity;BME280_pressure;Samples;Min_cycle;Max_cycle;Signal;HPM_P1;HPM_P2
2021/04/17 00:01:47;;;;;;;4.80;3.42;;;4.50;99.90;;;;;;4989916;28;20050;-84
2021/04/17 00:04:14;;;;;;;3.25;2.30;;;4.60;99.90;;;;;;4979979;28;20046;-84
2021/04/17 00:06:41;;;;;;;3.58;1.90;;;4.60;99.90;;;;;;4986826;28;20047;-82
2021/04/17 00:09:14;;;;;;;2.63;1.52;;;4.60;99.90;;;;;;4982373;28;20380;-83
2021/04/17 00:11:43;;;;;;;3.72;1.70;;;4.60;99.90;;;;;;4978944;28;20491;-81
2021/04/17 00:14:14;;;;;;;4.47;2.28;;;4.60;99.90;;;;;;4959258;28;20057;-83
2021/04/17 00:16:41;;;;;;;5.65;2.38;;;4.50;99.90;;;;;;4966113;28;20380;-82
2021/04/17 00:19:07;;;;;;;3.00;1.55;;;4.50;99.90;;;;;;4974114;28;20373;-83
2021/04/17 00:21:33;;;;;;;4.65;2.22;;;4.40;99.90;;;;;;4976136;28;20372;-84
2021/04/17 00:24:00;;;;;;;2.63;1.77;;;4.40;99.90;;;;;;4975418;28;20035;-84
2021/04/17 00:26:27;;;;;;;2.92;1.95;;;4.40;99.90;;;;;;4984172;28;20054;-83
2021/04/17 00:28:53;;;;;;;5.00;2.25;;;4.40;99.90;;;;;;4956882;28;20620;-83
2021/04/17 00:31:19;;;;;;;3.08;1.80;;;4.30;99.90;;;;;;4959342;28;20384;-83
2021/04/17 00:33:46;;;;;;;3.15;2.00;;;4.30;99.90;;;;;;4975488;28;20384;-84
2021/04/17 00:36:12;;;;;;;2.90;1.67;;;4.30;99.90;;;;;;4977105;28;20042;-84
2021/04/17 00:38:38;;;;;;;4.68;1.90;;;4.20;99.90;;;;;;4989167;28;20051;-84
2021/04/17 00:41:04;;;;;;;2.80;1.73;;;4.10;99.90;;;;;;4966835;28;20050;-83
2021/04/17 00:43:31;;;;;;;3.47;2.03;;;4.00;99.90;;;;;;4959132;28;20038;-84
2021/04/17 00:45:58;;;;;;;3.42;2.15;;;3.90;99.90;;;;;;4958088;28;20503;-84
2021/04/17 00:48:25;;;;;;;3.72;2.10;;;3.80;99.90;;;;;;4975404;28;20030;-84
2021/04/17 00:50:51;;;;;;;3.88;2.35;;;3.80;99.90;;;;;;4981908;28;20037;-83
2021/04/17 00:53:19;;;;;;;3.00;2.33;;;3.70;99.90;;;;;;4956780;28;20404;-83
2021/04/17 00:55:47;;;;;;;3.85;2.08;;;3.50;99.90;;;;;;4951866;28;20050;-83
2021/04/17 00:58:13;;;;;;;3.70;2.25;;;3.50;99.90;;;;;;4986284;28;20239;-83
2021/04/17 01:00:39;;;;;;;3.75;2.20;;;3.50;99.90;;;;;;4971972;28;20346;-81
2021/04/17 01:03:23;;;;;;;6.07;3.25;;;3.40;99.90;;;;;;4976032;28;20034;-84
2021/04/17 01:05:55;;;;;;;5.78;3.05;;;3.30;99.90;;;;;;4942564;28;20039;-83
2021/04/17 01:08:49;;;;;;;5.93;2.55;;;3.20;99.90;;;;;;4979670;28;20042;-83
2021/04/17 01:11:30;;;;;;;5.63;3.03;;;3.10;99.90;;;;;;4980235;28;20039;-83
2021/04/17 01:13:57;;;;;;;;;;;3.10;99.90;;;;;;4964700;28;20420;-81
2021/04/17 01:16:24;;;;;;;4.63;2.60;;;3.00;99.90;;;;;;4981744;28;19917;-83
2021/04/17 01:18:53;;;;;;;4.35;2.72;;;2.90;99.90;;;;;;4956685;28;20372;-83
2021/04/17 01:21:21;;;;;;;4.82;2.97;;;2.80;99.90;;;;;;4972820;28;20043;-83
2021/04/17 01:23:53;;;;;;;5.63;2.75;;;2.90;99.90;;;;;;4971060;28;20050;-82
2021/04/17 01:26:22;;;;;;;3.78;2.42;;;2.90;99.90;;;;;;4975051;28;20492;-83
2021/04/17 01:28:56;;;;;;;4.60;3.05;;;2.70;99.90;;;;;;4974587;28;20035;-83
2021/04/17 01:31:31;;;;;;;3.53;2.17;;;2.70;99.90;;;;;;4975101;28;20031;-83
2021/04/17 01:34:01;;;;;;;3.53;2.60;;;2.70;99.90;;;;;;4958607;28;20046;-83
2021/04/17 01:36:30;;;;;;;4.72;2.63;;;2.80;99.90;;;;;;4974501;28;20042;-83
2021/04/17 01:39:05;;;;;;;5.57;3.15;;;2.90;99.90;;;;;;4983761;28;20031;-83
2021/04/17 01:41:37;;;;;;;4.97;2.50;;;3.00;99.90;;;;;;5003856;28;20014;-83
2021/04/17 01:44:20;;;;;;;5.53;2.28;;;3.00;99.90;;;;;;4993024;28;20034;-83
2021/04/17 01:46:58;;;;;;;2.75;1.83;;;3.10;99.90;;;;;;4977331;28;20041;-81
2021/04/17 01:49:26;;;;;;;3.92;2.50;;;3.10;99.90;;;;;;4976759;28;20046;-82
2021/04/17 01:51:54;;;;;;;5.15;2.45;;;3.10;99.90;;;;;;4993234;28;20034;-84
2021/04/17 01:54:24;;;;;;;4.57;2.70;;;3.10;99.90;;;;;;4960959;28;20042;-83
2021/04/17 01:56:55;;;;;;;4.45;2.97;;;3.00;99.90;;;;;;4977039;28;20035;-82
2021/04/17 01:59:23;;;;;;;4.40;3.10;;;2.90;99.90;;;;;;4958780;28;20039;-83
2021/04/17 02:01:49;;;;;;;5.45;3.17;;;2.80;99.90;;;;;;4984722;28;20031;-83
2021/04/17 02:04:16;;;;;;;6.20;2.88;;;2.70;99.90;;;;;;4959237;28;20065;-83
2021/04/17 02:06:42;;;;;;;3.90;3.08;;;2.70;99.90;;;;;;4974456;28;20035;-81
2021/04/17 02:09:09;;;;;;;5.03;3.42;;;2.60;99.90;;;;;;4971988;28;20102;-82
2021/04/17 02:11:35;;;;;;;5.65;2.97;;;2.60;99.90;;;;;;4993765;28;20452;-83
2021/04/17 02:14:03;;;;;;;3.85;2.67;;;2.40;99.90;;;;;;4974589;28;20553;-83
2021/04/17 02:16:40;;;;;;;4.57;3.00;;;2.30;99.90;;;;;;4974607;28;20039;-83
2021/04/17 02:19:18;;;;;;;4.32;3.17;;;2.30;99.90;;;;;;4976459;28;20030;-83
2021/04/17 02:21:47;;;;;;;4.70;2.83;;;2.30;99.90;;;;;;4985976;28;20372;-80
2021/04/17 02:24:14;;;;;;;5.97;3.55;;;2.20;99.90;;;;;;4974649;28;20411;-82
2021/04/17 02:26:41;;;;;;;5.15;3.55;;;2.10;99.90;;;;;;4956588;28;20051;-83
2021/04/17 02:29:08;;;;;;;4.97;3.80;;;2.00;99.90;;;;;;4992131;28;20065;-82
2021/04/17 02:31:35;;;;;;;4.75;3.38;;;2.00;99.90;;;;;;4979135;28;20034;-83
2021/04/17 02:34:03;;;;;;;6.47;3.03;;;1.90;99.90;;;;;;4982341;28;20042;-83
2021/04/17 02:36:29;;;;;;;5.07;3.70;;;1.90;99.90;;;;;;4972901;28;20039;-83
2021/04/17 02:38:56;;;;;;;4.47;3.22;;;1.90;99.90;;;;;;4973139;28;20046;-83
2021/04/17 02:41:22;;;;;;;4.03;3.15;;;1.90;99.90;;;;;;4973287;28;20103;-82
2021/04/17 02:43:48;;;;;;;5.22;3.30;;;1.90;99.90;;;;;;4949780;28;20034;-83
2021/04/17 02:46:16;;;;;;;6.43;3.95;;;1.80;99.90;;;;;;4974492;28;20053;-83
2021/04/17 02:48:42;;;;;;;4.72;3.40;;;1.80;99.90;;;;;;4981893;28;20034;-81
2021/04/17 02:51:09;;;;;;;5.95;4.20;;;1.70;99.90;;;;;;4972974;28;20034;-82
2021/04/17 02:53:36;;;;;;;7.25;5.05;;;1.60;99.90;;;;;;4956420;28;20046;-82
2021/04/17 02:56:03;;;;;;;7.90;4.43;;;1.60;99.90;;;;;;4972911;28;20502;-80
2021/04/17 02:58:29;;;;;;;4.63;3.97;;;1.50;99.90;;;;;;4955949;28;20054;-82
2021/04/17 03:00:55;;;;;;;5.40;3.65;;;1.40;99.90;;;;;;4967567;28;20892;-83
2021/04/17 03:03:23;;;;;;;6.13;4.38;;;1.40;99.90;;;;;;4992029;28;20041;-82
2021/04/17 03:05:49;;;;;;;4.97;3.83;;;1.30;99.90;;;;;;4954833;28;20054;-82
2021/04/17 03:08:15;;;;;;;4.70;3.58;;;1.30;99.90;;;;;;4973625;28;20045;-83
2021/04/17 03:10:42;;;;;;;6.15;3.92;;;1.30;99.90;;;;;;4973384;28;20027;-82
2021/04/17 03:13:08;;;;;;;6.18;4.18;;;1.30;99.90;;;;;;4979814;28;20034;-83
2021/04/17 03:15:35;;;;;;;7.22;4.65;;;1.20;99.90;;;;;;4939537;28;20051;-82
2021/04/17 03:18:02;;;;;;;8.15;4.57;;;1.20;99.90;;;;;;4975983;28;20456;-83
2021/04/17 03:20:28;;;;;;;5.18;3.83;;;1.20;99.90;;;;;;4984637;28;20473;-84
2021/04/17 03:22:55;;;;;;;6.88;4.43;;;1.20;99.90;;;;;;4972352;28;20049;-83
2021/04/17 03:25:21;;;;;;;6.68;3.95;;;1.20;99.90;;;;;;4986711;28;20030;-83
2021/04/17 03:27:47;;;;;;;10.95;5.10;;;1.20;99.90;;;;;;4972239;28;20067;-82
2021/04/17 03:30:16;;;;;;;6.78;4.05;;;1.20;99.90;;;;;;4973084;28;20054;-84
2021/04/17 03:32:43;;;;;;;10.45;3.75;;;1.10;99.90;;;;;;4955466;28;20035;-83
2021/04/17 03:35:12;;;;;;;9.35;4.15;;;1.20;99.90;;;;;;4954299;28;20495;-85
2021/04/17 03:37:39;;;;;;;8.23;3.72;;;1.20;99.90;;;;;;4977214;28;20034;-83
2021/04/17 03:40:07;;;;;;;4.88;3.58;;;1.10;99.90;;;;;;4971911;28;20047;-84
2021/04/17 03:42:34;;;;;;;6.95;4.70;;;1.10;99.90;;;;;;4983321;28;20037;-82
2021/04/17 03:45:00;;;;;;;9.20;4.10;;;1.00;99.90;;;;;;4973018;28;20407;-82
2021/04/17 03:47:26;;;;;;;5.93;4.05;;;1.00;99.90;;;;;;4976688;28;20035;-82
2021/04/17 03:49:53;;;;;;;5.70;3.90;;;1.00;99.90;;;;;;4976550;28;20047;-82
2021/04/17 03:52:19;;;;;;;6.28;4.35;;;1.00;99.90;;;;;;4991732;28;20030;-82
2021/04/17 03:54:45;;;;;;;10.20;4.43;;;1.00;99.90;;;;;;4978073;28;20042;-82
2021/04/17 03:57:12;;;;;;;10.93;4.47;;;1.00;99.90;;;;;;4981642;28;20448;-83
2021/04/17 03:59:38;;;;;;;6.45;4.10;;;0.90;99.90;;;;;;4990389;28;20039;-83
2021/04/17 04:02:05;;;;;;;5.15;3.30;;;0.90;99.90;;;;;;4975593;28;20042;-83
2021/04/17 04:04:31;;;;;;;6.00;4.18;;;0.90;99.90;;;;;;4976441;28;20448;-82
2021/04/17 04:06:57;;;;;;;8.68;5.00;;;0.80;99.90;;;;;;4975865;28;20030;-82
2021/04/17 04:09:23;;;;;;;8.60;4.68;;;0.80;99.90;;;;;;4976741;28;20034;-83
2021/04/17 04:11:50;;;;;;;5.68;4.10;;;0.80;99.90;;;;;;4975421;28;20031;-82
2021/04/17 04:14:16;;;;;;;6.22;3.70;;;0.80;99.90;;;;;;4976942;28;20030;-82
2021/04/17 04:16:42;;;;;;;8.00;4.78;;;0.80;99.90;;;;;;4965209;28;20050;-82
2021/04/17 04:19:08;;;;;;;7.03;4.50;;;0.80;99.90;;;;;;4974831;28;20047;-83
2021/04/17 04:21:34;;;;;;;5.50;3.70;;;0.80;99.90;;;;;;4990490;28;20607;-83
2021/04/17 04:24:01;;;;;;;6.22;4.07;;;0.80;99.90;;;;;;4958766;28;20042;-82
2021/04/17 04:26:27;;;;;;;11.27;4.40;;;0.80;99.90;;;;;;4976002;28;20039;-82
2021/04/17 04:28:53;;;;;;;5.75;4.50;;;0.90;99.90;;;;;;4972866;28;20382;-83
2021/04/17 04:31:19;;;;;;;7.13;4.40;;;1.00;99.90;;;;;;4982493;28;20038;-83
2021/04/17 04:33:45;;;;;;;7.65;4.13;;;1.00;99.90;;;;;;4982463;28;20479;-80
2021/04/17 04:36:12;;;;;;;5.45;3.38;;;1.00;99.90;;;;;;4976826;28;20495;-83
2021/04/17 04:38:38;;;;;;;6.75;4.07;;;1.00;99.90;;;;;;4960310;28;20070;-83
2021/04/17 04:41:04;;;;;;;6.32;3.83;;;1.10;99.90;;;;;;4976279;28;20031;-83
2021/04/17 04:43:30;;;;;;;6.20;3.92;;;1.10;99.90;;;;;;4963597;28;20047;-82
2021/04/17 04:45:57;;;;;;;10.63;5.72;;;1.20;99.90;;;;;;4995199;28;20034;-84
2021/04/17 04:48:23;;;;;;;22.77;11.63;;;1.30;99.90;;;;;;4984591;28;20034;-82
2021/04/17 04:50:49;;;;;;;25.58;13.65;;;1.40;99.90;;;;;;4976466;28;20046;-83
2021/04/17 04:53:15;;;;;;;55.10;27.85;;;1.50;99.90;;;;;;4976966;28;20039;-84
2021/04/17 04:55:41;;;;;;;91.50;48.47;;;1.70;99.90;;;;;;4980168;28;20047;-82
2021/04/17 04:58:08;;;;;;;58.83;31.45;;;1.80;99.90;;;;;;4990731;28;20039;-83
2021/04/17 05:00:34;;;;;;;23.80;12.73;;;1.80;99.90;;;;;;4984896;28;20038;-83
2021/04/17 05:03:00;;;;;;;9.27;5.18;;;1.80;99.90;;;;;;4989200;28;20507;-82
2021/04/17 05:05:27;;;;;;;7.30;5.00;;;1.90;99.90;;;;;;4971914;28;20031;-83
2021/04/17 05:07:53;;;;;;;12.45;7.88;;;1.90;99.90;;;;;;4985603;28;20038;-83
2021/04/17 05:10:20;;;;;;;9.00;6.70;;;1.90;99.90;;;;;;4975703;28;20498;-83
2021/04/17 05:12:46;;;;;;;10.93;6.45;;;1.90;99.90;;;;;;4975001;28;20050;-81
2021/04/17 05:15:12;;;;;;;10.88;6.82;;;2.00;99.90;;;;;;4975025;28;20360;-84
2021/04/17 05:17:39;;;;;;;9.23;7.00;;;2.00;99.90;;;;;;4974432;28;20051;-84
2021/04/17 05:20:06;;;;;;;9.15;6.15;;;2.10;99.90;;;;;;4972652;28;20038;-83
2021/04/17 05:22:32;;;;;;;14.07;9.65;;;2.30;99.90;;;;;;4975238;28;20476;-83
2021/04/17 05:24:58;;;;;;;14.32;9.85;;;2.40;99.90;;;;;;4986076;28;20042;-83
2021/04/17 05:27:24;;;;;;;8.13;6.13;;;2.60;99.90;;;;;;4981913;28;20081;-83
2021/04/17 05:29:51;;;;;;;6.88;3.90;;;2.70;99.90;;;;;;4974270;28;20388;-84
2021/04/17 05:32:17;;;;;;;6.47;4.75;;;2.70;99.90;;;;;;4990194;28;20368;-85
2021/04/17 05:34:43;;;;;;;8.43;4.28;;;2.80;99.90;;;;;;4974444;28;20472;-84
2021/04/17 05:37:10;;;;;;;6.82;4.22;;;2.90;99.90;;;;;;4957491;28;20496;-83
2021/04/17 05:39:36;;;;;;;4.63;3.80;;;3.00;99.90;;;;;;4966339;28;20384;-84
2021/04/17 05:42:02;;;;;;;7.13;3.95;;;3.10;99.90;;;;;;4974012;28;20031;-82
2021/04/17 05:44:29;;;;;;;7.82;4.97;;;3.20;99.90;;;;;;4973109;28;20043;-83
2021/04/17 05:46:55;;;;;;;7.88;4.60;;;3.30;99.90;;;;;;4974039;28;20035;-82
2021/04/17 05:49:21;;;;;;;8.00;5.18;;;3.50;99.90;;;;;;4975657;28;20468;-83
2021/04/17 05:51:47;;;;;;;6.05;4.38;;;3.80;99.90;;;;;;4974934;28;20330;-83
2021/04/17 05:54:14;;;;;;;7.80;4.75;;;4.00;99.90;;;;;;4974637;28;20057;-84
2021/04/17 05:56:40;;;;;;;8.07;5.35;;;4.20;99.90;;;;;;4971375;28;20400;-84
2021/04/17 05:59:07;;;;;;;7.50;5.10;;;4.30;99.90;;;;;;4974190;28;20621;-84
2021/04/17 06:01:33;;;;;;;7.35;5.55;;;4.20;99.90;;;;;;4974611;28;20380;-84
2021/04/17 06:04:00;;;;;;;7.53;5.95;;;4.20;99.90;;;;;;4974078;28;20035;-84
2021/04/17 06:06:26;;;;;;;9.07;6.20;;;4.20;99.90;;;;;;4974622;28;20026;-84
2021/04/17 06:08:52;;;;;;;7.78;5.22;;;4.30;99.90;;;;;;4982692;28;20023;-83
2021/04/17 06:11:19;;;;;;;6.82;4.82;;;4.40;99.90;;;;;;4984010;28;20037;-85
2021/04/17 06:13:45;;;;;;;7.65;5.47;;;4.40;99.90;;;;;;4982257;28;20058;-81
2021/04/17 06:16:11;;;;;;;11.07;5.53;;;4.40;99.90;;;;;;4958521;28;20039;-83
2021/04/17 06:18:38;;;;;;;9.10;5.55;;;4.50;99.90;;;;;;4968148;28;20042;-83
2021/04/17 06:21:05;;;;;;;7.22;5.20;;;4.60;99.90;;;;;;4973658;28;20030;-83
2021/04/17 06:23:33;;;;;;;7.70;5.47;;;4.70;99.90;;;;;;4973668;28;20035;-84
2021/04/17 06:25:59;;;;;;;7.63;5.43;;;4.90;99.90;;;;;;4970446;28;20507;-83
2021/04/17 06:28:26;;;;;;;7.88;5.38;;;5.00;99.90;;;;;;4958800;28;20050;-82
2021/04/17 06:30:53;;;;;;;6.53;4.90;;;5.30;99.90;;;;;;4976887;28;20085;-84
2021/04/17 06:33:19;;;;;;;8.25;5.40;;;5.50;99.90;;;;;;4980505;28;20058;-84
2021/04/17 06:35:45;;;;;;;8.20;5.30;;;5.50;99.90;;;;;;4975464;28;20050;-81
2021/04/17 06:38:14;;;;;;;8.30;5.85;;;5.60;99.40;;;;;;4971134;28;20042;-80
2021/04/17 06:40:42;;;;;;;9.23;5.57;;;5.60;99.00;;;;;;4985822;28;20034;-80
2021/04/17 06:43:09;;;;;;;9.93;6.25;;;5.50;99.50;;;;;;4955597;28;20039;-80
2021/04/17 06:45:38;;;;;;;7.95;5.45;;;5.60;99.20;;;;;;4980634;28;20041;-80
2021/04/17 06:48:09;;;;;;;7.53;5.57;;;5.80;98.60;;;;;;4988464;28;20616;-80
2021/04/17 06:50:37;;;;;;;;;;;5.80;97.50;;;;;;4973932;28;20381;-80
2021/04/17 06:53:07;;;;;;;11.65;6.18;;;5.80;97.20;;;;;;4955819;28;20295;-81
2021/04/17 06:55:34;;;;;;;8.77;6.07;;;5.90;97.00;;;;;;4973038;28;20047;-80
2021/04/17 06:58:01;;;;;;;11.05;6.15;;;6.00;96.50;;;;;;4972511;28;20031;-80
2021/04/17 07:00:27;;;;;;;9.93;6.03;;;6.10;96.00;;;;;;4973003;28;20031;-81
2021/04/17 07:02:54;;;;;;;8.65;5.93;;;6.10;95.50;;;;;;4972532;28;20047;-79
2021/04/17 07:05:21;;;;;;;9.38;6.88;;;6.30;95.30;;;;;;4973898;28;20047;-81
2021/04/17 07:07:48;;;;;;;11.05;5.75;;;6.80;94.00;;;;;;4969989;28;20046;-80
2021/04/17 07:10:15;;;;;;;9.05;6.20;;;7.80;91.00;;;;;;4972805;28;20054;-81
2021/04/17 07:12:45;;;;;;;9.60;5.60;;;8.20;87.70;;;;;;4970804;28;20039;-81
2021/04/17 07:15:15;;;;;;;8.30;5.35;;;8.80;82.90;;;;;;4984755;28;20491;-82
2021/04/17 07:17:41;;;;;;;7.57;5.80;;;9.30;77.80;;;;;;4972802;28;20038;-82
2021/04/17 07:20:13;;;;;;;8.80;5.43;;;9.10;75.10;;;;;;4972958;28;20031;-81
2021/04/17 07:22:41;;;;;;;7.38;4.97;;;8.50;77.30;;;;;;4971495;28;20046;-81
2021/04/17 07:25:07;;;;;;;8.90;5.47;;;8.20;77.50;;;;;;4977582;28;20583;-82
2021/04/17 07:27:35;;;;;;;8.55;5.20;;;7.90;78.50;;;;;;4978139;28;20057;-82
2021/04/17 07:30:23;;;;;;;7.07;5.88;;;8.00;78.50;;;;;;4977373;28;20407;-80
2021/04/17 07:33:04;;;;;;;7.20;5.22;;;8.10;78.10;;;;;;4949958;28;20373;-81
2021/04/17 07:35:43;;;;;;;10.93;5.15;;;8.90;75.80;;;;;;4972889;28;20047;-82
2021/04/17 07:38:12;;;;;;;7.30;4.65;;;9.40;72.50;;;;;;4975681;28;20030;-82
2021/04/17 07:40:39;;;;;;;6.95;4.68;;;9.80;70.90;;;;;;4976855;28;20027;-82
2021/04/17 07:43:06;;;;;;;9.10;4.85;;;10.80;67.00;;;;;;4976288;28;20215;-81
2021/04/17 07:45:35;;;;;;;7.78;5.35;;;10.10;67.50;;;;;;4985436;28;20038;-82
2021/04/17 07:48:29;;;;;;;8.35;5.40;;;9.80;67.20;;;;;;4976516;28;20035;-80
2021/04/17 07:50:56;;;;;;;8.48;4.70;;;9.90;66.10;;;;;;4973993;28;20399;-80
2021/04/17 07:53:33;;;;;;;7.32;4.03;;;10.20;65.30;;;;;;4987556;28;20038;-81
2021/04/17 07:56:38;;;;;;;7.70;4.72;;;10.80;63.30;;;;;;4973262;28;20051;-80
2021/04/17 07:59:05;;;;;;;6.18;3.80;;;11.40;61.20;;;;;;5002493;28;20046;-81
2021/04/17 08:01:33;;;;;;;5.82;4.30;;;11.80;58.10;;;;;;4984438;28;20069;-79
2021/04/17 08:04:01;;;;;;;4.88;4.15;;;11.90;56.40;;;;;;4975715;28;20039;-79
2021/04/17 08:06:29;;;;;;;5.30;3.67;;;11.60;58.10;;;;;;4947300;28;20039;-80
2021/04/17 08:08:58;;;;;;;5.90;3.33;;;11.70;56.60;;;;;;4975841;28;20068;-81
2021/04/17 08:11:29;;;;;;;4.32;3.38;;;11.50;57.40;;;;;;4975643;28;20034;-79
2021/04/17 08:13:58;;;;;;;5.78;3.60;;;11.80;56.00;;;;;;4975607;28;20043;-79
2021/04/17 08:16:25;;;;;;;6.22;2.92;;;10.60;56.70;;;;;;4976429;28;20050;-80
2021/04/17 08:18:51;;;;;;;7.80;3.13;;;10.90;56.10;;;;;;4970570;28;20054;-79
2021/04/17 08:21:20;;;;;;;4.93;3.75;;;11.40;55.50;;;;;;4973178;28;20039;-80
2021/04/17 08:23:49;;;;;;;3.85;3.10;;;12.30;53.20;;;;;;4976055;28;20039;-80
2021/04/17 08:26:16;;;;;;;4.47;2.15;;;13.40;50.70;;;;;;4958375;28;20057;-81
2021/04/17 08:28:46;;;;;;;3.67;2.78;;;13.50;48.90;;;;;;4969893;28;20412;-78
2021/04/17 08:31:31;;;;;;;3.97;2.53;;;13.80;47.80;;;;;;4976409;28;20446;-80
2021/04/17 08:34:15;;;;;;;4.22;2.80;;;13.40;48.10;;;;;;4971897;28;20042;-82
2021/04/17 08:36:43;;;;;;;3.90;2.30;;;11.20;51.10;;;;;;4998732;28;20393;-82
2021/04/17 08:39:34;;;;;;;15.30;3.70;;;10.90;51.30;;;;;;4992517;28;20046;-81
2021/04/17 08:42:02;;;;;;;4.65;2.53;;;10.60;51.80;;;;;;4981801;28;20034;-82
2021/04/17 08:44:36;;;;;;;5.85;3.03;;;10.80;51.90;;;;;;4997970;28;20037;-80
2021/04/17 08:47:05;;;;;;;5.82;2.55;;;10.80;52.10;;;;;;4963086;28;20499;-80
2021/04/17 08:49:34;;;;;;;5.72;2.28;;;11.10;51.70;;;;;;4986489;28;20042;-79
2021/04/17 08:52:09;;;;;;;2.92;1.90;;;11.20;51.70;;;;;;4958663;28;20047;-82
2021/04/17 08:54:37;;;;;;;4.10;2.20;;;11.30;49.40;;;;;;4958436;28;20074;-80
2021/04/17 08:57:14;;;;;;;5.05;2.47;;;11.60;48.90;;;;;;4987601;28;20035;-81
2021/04/17 08:59:41;;;;;;;4.63;2.65;;;12.40;47.40;;;;;;4979135;28;20058;-80
2021/04/17 09:02:15;;;;;;;4.63;2.10;;;12.00;48.40;;;;;;4974323;28;20035;-79
2021/04/17 09:05:13;;;;;;;7.05;2.45;;;12.60;47.70;;;;;;4970281;28;20035;-80
2021/04/17 09:07:43;;;;;;;5.78;2.08;;;12.90;45.70;;;;;;4991662;28;20045;-79
2021/04/17 09:10:22;;;;;;;4.57;2.08;;;11.90;46.20;;;;;;4974323;28;20034;-80
2021/04/17 09:13:15;;;;;;;2.45;1.73;;;11.80;46.70;;;;;;4973962;28;20048;-80
2021/04/17 09:15:58;;;;;;;5.70;2.08;;;12.10;46.50;;;;;;4975348;28;20070;-79
2021/04/17 09:18:36;;;;;;;5.75;2.22;;;12.30;45.50;;;;;;4975248;28;20038;-80
2021/04/17 09:21:09;;;;;;;3.45;1.95;;;11.40;47.60;;;;;;4974425;28;20392;-80
2021/04/17 09:23:44;;;;;;;3.75;2.22;;;11.30;47.30;;;;;;4974568;28;20039;-80
2021/04/17 09:26:29;;;;;;;5.97;2.00;;;11.90;46.30;;;;;;4974387;28;20053;-79
2021/04/17 09:29:16;;;;;;;3.33;2.03;;;12.30;45.50;;;;;;4971752;28;20400;-80
2021/04/17 09:31:42;;;;;;;4.70;2.17;;;12.50;46.50;;;;;;4974480;28;20050;-77
2021/04/17 09:34:12;;;;;;;5.15;2.83;;;12.40;45.90;;;;;;4981576;28;20144;-79
2021/04/17 09:36:38;;;;;;;3.80;2.40;;;12.00;46.90;;;;;;4957568;28;20038;-79
2021/04/17 09:39:23;;;;;;;4.10;2.50;;;13.00;45.90;;;;;;4973491;28;20494;-79
2021/04/17 09:41:51;;;;;;;3.20;1.58;;;13.40;45.80;;;;;;4957105;28;20046;-81
2021/04/17 09:44:19;;;;;;;4.68;2.17;;;14.00;44.20;;;;;;4988909;28;20054;-82
2021/04/17 09:46:47;;;;;;;5.43;2.45;;;13.90;44.40;;;;;;5007792;28;20041;-83
2021/04/17 09:49:34;;;;;;;3.38;1.80;;;14.30;43.20;;;;;;4984827;28;20027;-83
2021/04/17 09:52:01;;;;;;;4.13;2.10;;;14.90;43.60;;;;;;4962067;28;20045;-83
2021/04/17 09:54:28;;;;;;;6.63;2.80;;;14.20;43.50;;;;;;4975045;28;20038;-84
2021/04/17 09:56:55;;;;;;;7.75;4.32;;;14.00;44.40;;;;;;4974450;28;20095;-84
2021/04/17 09:59:22;;;;;;;6.38;3.88;;;14.50;43.40;;;;;;4974923;28;20042;-83
2021/04/17 10:01:56;;;;;;;6.05;3.03;;;13.40;44.50;;;;;;4974255;28;20038;-85
2021/04/17 10:04:22;;;;;;;3.55;1.90;;;13.20;45.10;;;;;;4974675;28;20469;-87
2021/04/17 10:06:56;;;;;;;5.72;3.08;;;13.30;44.10;;;;;;4974280;28;20042;-85
2021/04/17 10:09:23;;;;;;;5.65;2.60;;;12.50;45.60;;;;;;4974730;28;20041;-86
2021/04/17 10:11:49;;;;;;;4.25;2.70;;;12.10;45.40;;;;;;4957489;28;20031;-82
2021/04/17 10:14:17;;;;;;;5.93;2.92;;;11.80;44.80;;;;;;4975375;28;20057;-86
2021/04/17 10:16:48;;;;;;;4.25;2.03;;;11.70;45.70;;;;;;4974822;28;20031;-86
2021/04/17 10:19:16;;;;;;;9.75;5.07;;;12.20;45.00;;;;;;4976553;28;20039;-84
2021/04/17 10:21:48;;;;;;;7.43;2.20;;;12.20;45.40;;;;;;4975553;28;20030;-87
2021/04/17 10:24:28;;;;;;;4.18;1.70;;;12.10;44.60;;;;;;4957046;28;20038;-85
2021/04/17 10:27:05;;;;;;;5.28;1.98;;;12.00;44.60;;;;;;4973363;28;20069;-87
2021/04/17 10:29:32;;;;;;;5.10;2.08;;;12.00;44.40;;;;;;4974391;28;20041;-86
2021/04/17 10:32:04;;;;;;;7.45;2.40;;;11.90;43.20;;;;;;4982693;28;20046;-88
2021/04/17 10:34:31;;;;;;;4.47;2.25;;;11.40;43.50;;;;;;4974686;28;20034;-87
2021/04/17 10:37:07;;;;;;;11.43;8.68;;;11.70;44.80;;;;;;4970110;28;20038;-87
2021/04/17 10:39:35;;;;;;;5.30;3.30;;;12.00;44.40;;;;;;4986419;28;20495;-88
2021/04/17 10:42:07;;;;;;;15.73;10.75;;;11.80;43.60;;;;;;4989729;28;20042;-84
2021/04/17 10:44:33;;;;;;;6.20;5.65;;;12.10;43.20;;;;;;4980886;28;20041;-87
2021/04/17 10:47:02;;;;;;;4.00;1.90;;;12.10;42.60;;;;;;4979813;28;20030;-86
2021/04/17 10:49:33;;;;;;;2.83;1.63;;;12.10;42.60;;;;;;4975501;28;20038;-87
2021/04/17 10:52:04;;;;;;;6.97;2.22;;;12.20;43.30;;;;;;4970924;28;20050;-84
2021/04/17 10:54:32;;;;;;;6.72;2.00;;;12.10;43.80;;;;;;4973728;28;20023;-86
2021/04/17 10:57:02;;;;;;;3.83;1.70;;;12.00;43.40;;;;;;4973569;28;20031;-88
2021/04/17 10:59:55;;;;;;;5.88;2.20;;;11.70;43.10;;;;;;4974260;28;20034;-88
2021/04/17 11:02:31;;;;;;;3.22;1.92;;;11.90;43.50;;;;;;4974316;28;20039;-86
2021/04/17 11:04:59;;;;;;;5.05;1.90;;;12.40;43.80;;;;;;4973331;28;20026;-86
2021/04/17 11:07:37;;;;;;;2.28;1.67;;;12.70;43.40;;;;;;4986104;28;20384;-87
2021/04/17 11:10:06;;;;;;;4.43;1.95;;;12.60;43.30;;;;;;4957083;28;20043;-89
2021/04/17 11:12:35;;;;;;;4.25;2.00;;;12.60;43.30;;;;;;4974532;28;20039;-89
2021/04/17 11:15:22;;;;;;;4.45;1.88;;;12.40;43.40;;;;;;4957960;28;20506;-76
2021/04/17 11:18:07;;;;;;;4.65;2.42;;;12.50;43.10;;;;;;4979963;28;20047;-87
2021/04/17 11:20:43;;;;;;;4.65;2.08;;;12.40;43.30;;;;;;4969194;28;20479;-85
2021/04/17 11:23:47;;;;;;;5.28;2.25;;;12.10;44.00;;;;;;4983048;28;20259;-86
2021/04/17 11:26:20;;;;;;;4.70;2.55;;;12.40;43.80;;;;;;4893902;29;20052;-87
2021/04/17 11:28:58;;;;;;;4.03;2.30;;;12.20;44.10;;;;;;4962052;28;20046;-84
2021/04/17 11:31:29;;;;;;;4.45;1.90;;;12.70;43.50;;;;;;4972571;28;20039;-85
2021/04/17 11:33:59;;;;;;;4.40;1.90;;;13.20;43.40;;;;;;4969541;28;20053;-83
2021/04/17 11:36:28;;;;;;;6.43;2.35;;;13.30;42.70;;;;;;4962395;28;20054;-84
2021/04/17 11:38:55;;;;;;;3.83;2.08;;;13.40;43.00;;;;;;4953429;28;20473;-83
2021/04/17 11:41:22;;;;;;;3.83;2.00;;;12.80;42.20;;;;;;4958378;28;20049;-82
2021/04/17 11:43:50;;;;;;;5.05;2.40;;;12.70;42.50;;;;;;4955466;28;20039;-86
2021/04/17 11:46:18;;;;;;;4.75;2.15;;;12.80;42.20;;;;;;4961792;28;20052;-83
2021/04/17 11:48:49;;;;;;;3.15;1.67;;;13.20;42.20;;;;;;4965066;28;20035;-88
2021/04/17 11:51:17;;;;;;;;;;;13.00;41.10;;;;;;4972349;28;20511;-85
2021/04/17 11:53:44;;;;;;;5.30;1.80;;;13.10;41.00;;;;;;4973747;28;19910;-85
2021/04/17 11:56:10;;;;;;;2.83;1.75;;;13.00;41.50;;;;;;4972822;28;20039;-84
2021/04/17 11:58:36;;;;;;;3.63;1.92;;;12.90;41.20;;;;;;4973051;28;20045;-84
2021/04/17 12:01:03;;;;;;;4.70;2.00;;;13.10;41.10;;;;;;4971993;28;20380;-83
2021/04/17 12:03:29;;;;;;;5.95;2.10;;;13.50;41.20;;;;;;4963963;28;20035;-85
2021/04/17 12:05:57;;;;;;;4.70;1.98;;;13.70;40.50;;;;;;4945635;29;20378;-87
2021/04/17 12:08:24;;;;;;;5.07;2.08;;;12.40;41.40;;;;;;4963868;28;20047;-84
2021/04/17 12:10:53;;;;;;;3.25;1.98;;;12.70;42.40;;;;;;4976315;28;20034;-82
2021/04/17 12:13:19;;;;;;;3.85;1.90;;;12.70;40.90;;;;;;4976767;28;20047;-84
2021/04/17 12:15:47;;;;;;;4.82;1.85;;;13.10;41.80;;;;;;4964050;28;20043;-84
2021/04/17 12:18:14;;;;;;;3.47;1.70;;;13.20;41.50;;;;;;4974604;28;20047;-83
2021/04/17 12:20:41;;;;;;;3.92;1.90;;;13.00;40.50;;;;;;4975748;28;20034;-83
2021/04/17 12:23:07;;;;;;;4.13;1.63;;;13.20;41.10;;;;;;4975479;28;20046;-84
2021/04/17 12:25:33;;;;;;;4.32;1.75;;;13.40;41.00;;;;;;4979099;28;20475;-83
2021/04/17 12:28:00;;;;;;;5.97;1.63;;;13.00;40.20;;;;;;4958891;28;20392;-84
2021/04/17 12:30:27;;;;;;;4.47;2.17;;;12.80;40.50;;;;;;4980367;28;20388;-83
2021/04/17 12:32:53;;;;;;;3.92;1.73;;;12.80;40.40;;;;;;4982082;28;20053;-82
2021/04/17 12:35:21;;;;;;;6.80;1.77;;;12.80;40.40;;;;;;4977546;28;20073;-84
2021/04/17 12:37:49;;;;;;;3.53;2.10;;;12.90;40.90;;;;;;4976428;28;20047;-83
2021/04/17 12:40:16;;;;;;;5.35;1.92;;;13.00;41.70;;;;;;4975242;28;20043;-85
2021/04/17 12:42:43;;;;;;;6.60;2.85;;;13.30;42.00;;;;;;4975921;28;20031;-86
2021/04/17 12:45:11;;;;;;;4.00;1.85;;;13.10;41.80;;;;;;4966338;28;20047;-86
2021/04/17 12:47:41;;;;;;;5.40;2.28;;;12.90;42.90;;;;;;4975953;28;20038;-85
2021/04/17 12:50:08;;;;;;;5.22;2.35;;;13.20;42.60;;;;;;4988255;28;20403;-83
2021/04/17 12:52:35;;;;;;;4.10;2.63;;;13.60;43.10;;;;;;4983273;28;20035;-84
2021/04/17 12:55:03;;;;;;;3.85;2.78;;;13.70;41.90;;;;;;4958527;28;20050;-81
2021/04/17 12:57:29;;;;;;;3.92;2.33;;;13.20;42.20;;;;;;4957118;28;20500;-83
2021/04/17 12:59:55;;;;;;;3.65;2.17;;;12.90;42.50;;;;;;4958451;28;20039;-85
2021/04/17 13:02:22;;;;;;;3.25;1.90;;;12.80;43.20;;;;;;4975451;28;20035;-83
2021/04/17 13:04:48;;;;;;;5.90;2.05;;;13.20;43.30;;;;;;4975410;28;20089;-83